Observation data for Lamesa on 02/10/2018      Previous  Date  Next       Current Mesonet Observations  Soil Data  Daily Summary Page  Observations in Plain Language
KLES 100600Z 10003KT 08/01 A2992 RMK A01 T00820011  RH  062%=      5-min Rain = 0
KLES 100605Z 07003KT 08/01 A2992 RMK A01 T00770008  RH  062%=      5-min Rain = 0
KLES 100610Z 10005KT 07/01 A2992 RMK A01 T00730008  RH  064%=      5-min Rain = 0
KLES 100615Z 11005KT 07/01 A2991 RMK A01 T00720009  RH  065%=      5-min Rain = 0
KLES 100620Z 09004KT 07/01 A2992 RMK A01 T00720010  RH  066%=      5-min Rain = 0
KLES 100625Z 03004KT 07/01 A2992 RMK A01 T00720010  RH  065%=      5-min Rain = 0
KLES 100630Z 08003KT 07/01 A2992 RMK A01 T00670005  RH  065%=      5-min Rain = 0
KLES 100635Z 11006KT 07/01 A2992 RMK A01 T00690007  RH  065%=      5-min Rain = 0
KLES 100640Z 11004KT 07/01 A2991 RMK A01 T00700006  RH  064%=      5-min Rain = 0
KLES 100645Z 07004KT 07/00 A2992 RMK A01 T00660003  RH  065%=      5-min Rain = 0
KLES 100650Z 10005KT 06/M01 A2991 RMK A01 T00621009  RH  061%=      5-min Rain = 0
KLES 100655Z 11005KT 06/M01 A2991 RMK A01 T00631012  RH  059%=      5-min Rain = 0
KLES 100700Z 05005KT 06/M02 A2991 RMK A01 T00621016  RH  058%=      5-min Rain = 0
KLES 100705Z 06004KT 06/M02 A2992 RMK A01 T00551022  RH  058%=      5-min Rain = 0
KLES 100710Z 09004KT 06/M02 A2991 RMK A01 T00551023  RH  058%=      5-min Rain = 0
KLES 100715Z 06005KT 05/M02 A2991 RMK A01 T00541024  RH  058%=      5-min Rain = 0
KLES 100720Z 08005KT 05/M03 A2991 RMK A01 T00521026  RH  058%=      5-min Rain = 0
KLES 100725Z 09005KT 05/M03 A2991 RMK A01 T00511029  RH  057%=      5-min Rain = 0
KLES 100730Z 09003KT 05/M03 A2991 RMK A01 T00471030  RH  058%=      5-min Rain = 0
KLES 100735Z 10005KT 05/M03 A2991 RMK A01 T00461031  RH  058%=      5-min Rain = 0
KLES 100740Z 09004KT 05/M03 A2991 RMK A01 T00451031  RH  058%=      5-min Rain = 0
KLES 100745Z 11006KT 04/M03 A2991 RMK A01 T00441031  RH  059%=      5-min Rain = 0
KLES 100750Z 10006KT 04/M03 A2991 RMK A01 T00441033  RH  058%=      5-min Rain = 0
KLES 100755Z 08005KT 04/M04 A2991 RMK A01 T00411035  RH  058%=      5-min Rain = 0
KLES 100800Z 05004KT 04/M03 A2991 RMK A01 T00381034  RH  060%=      5-min Rain = 0
KLES 100805Z 02003KT 04/M04 A2992 RMK A01 T00351036  RH  061%=      5-min Rain = 0
KLES 100810Z 04005KT 03/M04 A2992 RMK A01 T00321036  RH  061%=      5-min Rain = 0
KLES 100815Z 08006KT 03/M04 A2991 RMK A01 T00341039  RH  059%=      5-min Rain = 0
KLES 100820Z 06004KT 03/M04 A2991 RMK A01 T00331041  RH  059%=      5-min Rain = 0
KLES 100825Z 05006KT 03/M04 A2992 RMK A01 T00291043  RH  059%=      5-min Rain = 0
KLES 100830Z 06006KT 03/M05 A2991 RMK A01 T00271045  RH  059%=      5-min Rain = 0
KLES 100835Z 05007KT 03/M05 A2991 RMK A01 T00251047  RH  060%=      5-min Rain = 0
KLES 100840Z 05009KT 02/M05 A2991 RMK A01 T00231049  RH  059%=      5-min Rain = 0
KLES 100845Z 05009KT 02/M05 A2991 RMK A01 T00221051  RH  059%=      5-min Rain = 0
KLES 100850Z 05010G15KT 02/M05 A2992 RMK A01 T00211051  RH  060%=      5-min Rain = 0
KLES 100855Z 05010KT 02/M05 A2992 RMK A01 T00201052  RH  060%=      5-min Rain = 0
KLES 100900Z 05011G16KT 02/M05 A2992 RMK A01 T00191052  RH  060%=      5-min Rain = 0
KLES 100905Z 05010KT 02/M05 A2992 RMK A01 T00181053  RH  060%=      5-min Rain = 0
KLES 100910Z 05009KT 02/M05 A2993 RMK A01 T00161054  RH  060%=      5-min Rain = 0
KLES 100915Z 04008G13KT 02/M06 A2994 RMK A01 T00151055  RH  060%=      5-min Rain = 0
KLES 100920Z 05009KT 01/M06 A2994 RMK A01 T00131056  RH  061%=      5-min Rain = 0
KLES 100925Z 05009G14KT 01/M06 A2994 RMK A01 T00111057  RH  061%=      5-min Rain = 0
KLES 100930Z 04008G13KT 01/M06 A2995 RMK A01 T00091059  RH  061%=      5-min Rain = 0
KLES 100935Z 04010G15KT 01/M06 A2995 RMK A01 T00071062  RH  060%=      5-min Rain = 0
KLES 100940Z 03010KT 01/M07 A2996 RMK A01 T00051065  RH  060%=      5-min Rain = 0
KLES 100945Z 04010KT 00/M07 A2996 RMK A01 T00021066  RH  061%=      5-min Rain = 0
KLES 100950Z 04010G16KT 00/07 A2996 RMK A01 T00000-68  RH  061%=      5-min Rain = 0
KLES 100955Z 03010KT M00/M07 A2996 RMK A01 T10021071  RH  060%=      5-min Rain = 0
KLES 101000Z 04013G19KT M00/M07 A2996 RMK A01 T10041074  RH  060%=      5-min Rain = 0
KLES 101005Z 04011G17KT M01/M08 A2996 RMK A01 T10071076  RH  060%=      5-min Rain = 0
KLES 101010Z 04011G19KT M01/M08 A2996 RMK A01 T10081076  RH  061%=      5-min Rain = 0
KLES 101015Z 04011G17KT M01/M08 A2996 RMK A01 T10091077  RH  061%=      5-min Rain = 0
KLES 101020Z 04011KT M01/M08 A2996 RMK A01 T10111078  RH  061%=      5-min Rain = 0
KLES 101025Z 04011G16KT M01/M08 A2996 RMK A01 T10121078  RH  062%=      5-min Rain = 0
KLES 101030Z 04010KT M01/M08 A2996 RMK A01 T10141079  RH  062%=      5-min Rain = 0
KLES 101035Z 04009KT M02/M08 A2996 RMK A01 T10151080  RH  062%=      5-min Rain = 0
KLES 101040Z 04011G17KT M02/M08 A2996 RMK A01 T10171081  RH  062%=      5-min Rain = 0
KLES 101045Z 04011G16KT M02/M08 A2996 RMK A01 T10181083  RH  062%=      5-min Rain = 0
KLES 101050Z 04010KT M02/M08 A2996 RMK A01 T10201084  RH  062%=      5-min Rain = 0
KLES 101055Z 04012KT M02/M09 A2996 RMK A01 T10211086  RH  062%=      5-min Rain = 0
KLES 101100Z 04010KT M02/M09 A2996 RMK A01 T10231087  RH  062%=      5-min Rain = 0
KLES 101105Z 04011G18KT M02/M09 A2996 RMK A01 T10241087  RH  063%=      5-min Rain = 0
KLES 101110Z 04012G18KT M03/M09 A2997 RMK A01 T10251088  RH  063%=      5-min Rain = 0
KLES 101115Z 03010G15KT M03/M09 A2997 RMK A01 T10261089  RH  063%=      5-min Rain = 0
KLES 101120Z 03011G16KT M03/M09 A2997 RMK A01 T10281090  RH  063%=      5-min Rain = 0
KLES 101125Z 03011G16KT M03/M09 A2997 RMK A01 T10291091  RH  063%=      5-min Rain = 0
KLES 101130Z 03012G17KT M03/M09 A2998 RMK A01 T10301092  RH  063%=      5-min Rain = 0
KLES 101135Z 03011G16KT M03/M09 A2998 RMK A01 T10311092  RH  063%=      5-min Rain = 0
KLES 101140Z 03011KT M03/M09 A2998 RMK A01 T10321093  RH  064%=      5-min Rain = 0
KLES 101145Z 04011G18KT M03/M09 A2998 RMK A01 T10331093  RH  064%=      5-min Rain = 0
KLES 101150Z 04011G16KT M03/M09 A2998 RMK A01 T10341094  RH  064%=      5-min Rain = 0
KLES 101155Z 03012KT M04/M10 A2998 RMK A01 T10351095  RH  064%=      5-min Rain = 0
KLES 101200Z 04010G15KT M04/M10 A2998 RMK A01 T10371095  RH  065%=      5-min Rain = 0
KLES 101205Z 04010G16KT M04/M10 A2999 RMK A01 T10381096  RH  065%=      5-min Rain = 0
KLES 101210Z 03009G14KT M04/M10 A30 RMK A01 T10391097  RH  065%=      5-min Rain = 0
KLES 101215Z 03010G15KT M04/M10 A30 RMK A01 T10401097  RH  065%=      5-min Rain = 0
KLES 101220Z 03010G15KT M04/M10 A30 RMK A01 T10401098  RH  065%=      5-min Rain = 0
KLES 101225Z 03010G16KT M04/M10 A30 RMK A01 T10411098  RH  065%=      5-min Rain = 0
KLES 101230Z 03011KT M04/M10 A3001 RMK A01 T10421099  RH  065%=      5-min Rain = 0
KLES 101235Z 03011G17KT M04/M10 A30 RMK A01 T10431100  RH  065%=      5-min Rain = 0
KLES 101240Z 03011G16KT M05/M10 A30 RMK A01 T10451101  RH  066%=      5-min Rain = 0
KLES 101245Z 03012G17KT M05/M10 A3001 RMK A01 T10461101  RH  066%=      5-min Rain = 0
KLES 101250Z 03013G18KT M05/M10 A3001 RMK A01 T10471102  RH  066%=      5-min Rain = 0
KLES 101255Z 03011G16KT M05/M10 A3002 RMK A01 T10471103  RH  066%=      5-min Rain = 0
KLES 101300Z 02011KT M05/M10 A3002 RMK A01 T10491104  RH  066%=      5-min Rain = 0
KLES 101305Z 02010G17KT M05/M10 A3002 RMK A01 T10511104  RH  067%=      5-min Rain = 0
KLES 101310Z 03013KT M05/M11 A3002 RMK A01 T10521106  RH  067%=      5-min Rain = 0
KLES 101315Z 03013G18KT M05/M11 A3001 RMK A01 T10531107  RH  067%=      5-min Rain = 0
KLES 101320Z 03012G17KT M05/M11 A3002 RMK A01 T10541107  RH  067%=      5-min Rain = 0
KLES 101325Z 03012G20KT M06/M11 A3001 RMK A01 T10561109  RH  067%=      5-min Rain = 0
KLES 101330Z 03014G19KT M06/M11 A3001 RMK A01 T10571109  RH  067%=      5-min Rain = 0
KLES 101335Z 03013KT M06/M11 A3001 RMK A01 T10581110  RH  067%=      5-min Rain = 0
KLES 101340Z 03011G16KT M06/M11 A3001 RMK A01 T10591110  RH  068%=      5-min Rain = 0
KLES 101345Z 02013KT M06/M11 A3002 RMK A01 T10601111  RH  068%=      5-min Rain = 0
KLES 101350Z 02012KT M06/M11 A3002 RMK A01 T10611111  RH  068%=      5-min Rain = 0
KLES 101355Z 02012G17KT M06/M11 A3002 RMK A01 T10621112  RH  069%=      5-min Rain = 0
KLES 101400Z 03012G18KT M06/M11 A3002 RMK A01 T10621112  RH  069%=      5-min Rain = 0
KLES 101405Z 03014G19KT M06/M11 A3002 RMK A01 T10621112  RH  069%=      5-min Rain = 0
KLES 101410Z 03011KT M06/M11 A3002 RMK A01 T10621112  RH  069%=      5-min Rain = 0
KLES 101415Z 02013KT M06/M11 A3002 RMK A01 T10621112  RH  068%=      5-min Rain = 0
KLES 101420Z 03013KT M06/M11 A3003 RMK A01 T10611113  RH  068%=      5-min Rain = 0
KLES 101425Z 03011KT M06/M11 A3003 RMK A01 T10611113  RH  068%=      5-min Rain = 0
KLES 101430Z 02010KT M06/M11 A3003 RMK A01 T10601112  RH  067%=      5-min Rain = 0
KLES 101435Z 02012KT M06/M11 A3003 RMK A01 T10591113  RH  066%=      5-min Rain = 0
KLES 101440Z 02014G19KT M06/M11 A3003 RMK A01 T10591113  RH  066%=      5-min Rain = 0
KLES 101445Z 02015G20KT M06/M11 A3003 RMK A01 T10591112  RH  067%=      5-min Rain = 0
KLES 101450Z 02013G18KT M06/M11 A3003 RMK A01 T10581112  RH  067%=      5-min Rain = 0
KLES 101455Z 02013KT M06/M11 A3003 RMK A01 T10581112  RH  066%=      5-min Rain = 0
KLES 101500Z 03011G16KT M06/M11 A3003 RMK A01 T10571111  RH  066%=      5-min Rain = 0
KLES 101505Z 02012G17KT M06/M11 A3003 RMK A01 T10561111  RH  066%=      5-min Rain = 0
KLES 101510Z 02012G18KT M06/M11 A3003 RMK A01 T10561111  RH  066%=      5-min Rain = 0
KLES 101515Z 02013KT M05/M11 A3004 RMK A01 T10531110  RH  065%=      5-min Rain = 0
KLES 101520Z 03011KT M05/M11 A3003 RMK A01 T10521110  RH  065%=      5-min Rain = 0
KLES 101525Z 02012KT M05/M11 A3004 RMK A01 T10521109  RH  065%=      5-min Rain = 0
KLES 101530Z 03012G17KT M05/M11 A3004 RMK A01 T10511109  RH  064%=      5-min Rain = 0
KLES 101535Z 02011KT M05/M11 A3004 RMK A01 T10501108  RH  065%=      5-min Rain = 0
KLES 101540Z 02011KT M05/M11 A3004 RMK A01 T10471107  RH  063%=      5-min Rain = 0
KLES 101545Z 02011KT M05/M11 A3004 RMK A01 T10461107  RH  063%=      5-min Rain = 0
KLES 101550Z 02011G16KT M04/M11 A3004 RMK A01 T10441106  RH  063%=      5-min Rain = 0
KLES 101555Z 01011KT M04/M11 A3004 RMK A01 T10421105  RH  062%=      5-min Rain = 0
KLES 101600Z 01012KT M04/M11 A3004 RMK A01 T10411105  RH  062%=      5-min Rain = 0
KLES 101605Z 02011G17KT M04/M11 A3003 RMK A01 T10391105  RH  061%=      5-min Rain = 0
KLES 101610Z 01010G15KT M04/M10 A3003 RMK A01 T10361103  RH  060%=      5-min Rain = 0
KLES 101615Z 01011KT M03/M10 A3003 RMK A01 T10331103  RH  059%=      5-min Rain = 0
KLES 101620Z 02011G16KT M03/M10 A3003 RMK A01 T10331103  RH  059%=      5-min Rain = 0
KLES 101625Z 01010KT M03/M10 A3003 RMK A01 T10331103  RH  059%=      5-min Rain = 0
KLES 101630Z 02011G17KT M03/M10 A3003 RMK A01 T10301102  RH  059%=      5-min Rain = 0
KLES 101635Z 02009G16KT M03/M10 A3003 RMK A01 T10291101  RH  058%=      5-min Rain = 0
KLES 101640Z 02010KT M03/M10 A3003 RMK A01 T10271100  RH  058%=      5-min Rain = 0
KLES 101645Z 01010KT M02/M10 A3003 RMK A01 T10231099  RH  057%=      5-min Rain = 0
KLES 101650Z 03009KT M02/M10 A3003 RMK A01 T10221098  RH  057%=      5-min Rain = 0
KLES 101655Z 04010KT M02/M10 A3002 RMK A01 T10221098  RH  057%=      5-min Rain = 0
KLES 101700Z 04009KT M02/M10 A3002 RMK A01 T10211097  RH  057%=      5-min Rain = 0
KLES 101705Z 03010KT M02/M10 A3002 RMK A01 T10181096  RH  056%=      5-min Rain = 0
KLES 101710Z 04010KT M02/M10 A3001 RMK A01 T10161096  RH  055%=      5-min Rain = 0
KLES 101715Z 04009G14KT M02/M09 A3001 RMK A01 T10151094  RH  055%=      5-min Rain = 0
KLES 101720Z 02009G14KT M01/M09 A3001 RMK A01 T10121094  RH  054%=      5-min Rain = 0
KLES 101725Z 02009KT M01/M09 A3002 RMK A01 T10111094  RH  054%=      5-min Rain = 0
KLES 101730Z 02007G12KT M01/M09 A3002 RMK A01 T10071093  RH  053%=      5-min Rain = 0
KLES 101735Z 01009KT M00/M09 A3002 RMK A01 T10031091  RH  052%=      5-min Rain = 0
KLES 101740Z 01008G13KT M00/M09 A3002 RMK A01 T10041092  RH  052%=      5-min Rain = 0
KLES 101745Z 02007G12KT M00/M09 A3001 RMK A01 T10031090  RH  052%=      5-min Rain = 0
KLES 101750Z 04008KT 00/09 A3001 RMK A01 T00000-90  RH  051%=      5-min Rain = 0
KLES 101755Z 03006G11KT 00/M09 A3001 RMK A01 T00021089  RH  051%=      5-min Rain = 0
KLES 101800Z 01007KT 00/M09 A30 RMK A01 T00031089  RH  051%=      5-min Rain = 0
KLES 101805Z 04006G14KT 01/M09 A30 RMK A01 T00081086  RH  050%=      5-min Rain = 0
KLES 101810Z 04007KT 01/M09 A2999 RMK A01 T00081087  RH  050%=      5-min Rain = 0
KLES 101815Z 04007KT 01/M09 A2999 RMK A01 T00061087  RH  050%=      5-min Rain = 0
KLES 101820Z 05005KT 01/M09 A2999 RMK A01 T00081087  RH  050%=      5-min Rain = 0
KLES 101825Z 04005KT 01/M09 A2998 RMK A01 T00111086  RH  049%=      5-min Rain = 0
KLES 101830Z 04006KT 01/M08 A2998 RMK A01 T00131084  RH  049%=      5-min Rain = 0
KLES 101835Z 07005KT 02/M09 A2998 RMK A01 T00151085  RH  048%=      5-min Rain = 0
KLES 101840Z 08006KT 01/M08 A2998 RMK A01 T00131084  RH  049%=      5-min Rain = 0
KLES 101845Z 10004KT 01/M08 A2997 RMK A01 T00121084  RH  049%=      5-min Rain = 0
KLES 101850Z 03005G10KT 02/M08 A2997 RMK A01 T00161082  RH  049%=      5-min Rain = 0
KLES 101855Z 03004KT 02/M08 A2996 RMK A01 T00191084  RH  047%=      5-min Rain = 0
KLES 101900Z 06006KT 02/M08 A2996 RMK A01 T00201083  RH  047%=      5-min Rain = 0
KLES 101905Z 04004KT 02/M08 A2995 RMK A01 T00221080  RH  047%=      5-min Rain = 0
KLES 101910Z 06006KT 03/M08 A2995 RMK A01 T00261082  RH  046%=      5-min Rain = 0
KLES 101915Z 08004KT 02/M08 A2994 RMK A01 T00231081  RH  046%=      5-min Rain = 0
KLES 101920Z 04005KT 03/M08 A2994 RMK A01 T00251081  RH  046%=      5-min Rain = 0
KLES 101925Z 07005KT 03/M08 A2993 RMK A01 T00311078  RH  045%=      5-min Rain = 0
KLES 101930Z 09004KT 03/M08 A2992 RMK A01 T00341078  RH  044%=      5-min Rain = 0
KLES 101935Z 02004KT 03/M08 A2992 RMK A01 T00331080  RH  044%=      5-min Rain = 0
KLES 101940Z 10003KT 03/M08 A2991 RMK A01 T00341078  RH  044%=      5-min Rain = 0
KLES 101945Z 05002KT 03/M08 A2991 RMK A01 T00331078  RH  045%=      5-min Rain = 0
KLES 101950Z 01004KT 04/M08 A2991 RMK A01 T00391077  RH  043%=      5-min Rain = 0
KLES 101955Z 35004KT 04/M08 A299 RMK A01 T00431076  RH  042%=      5-min Rain = 0
KLES 102000Z 03004G9KT 04/M08 A299 RMK A01 T00441077  RH  042%=      5-min Rain = 0
KLES 102005Z 03005KT 05/M08 A299 RMK A01 T00461076  RH  041%=      5-min Rain = 0
KLES 102010Z 33002KT 05/M08 A299 RMK A01 T00451077  RH  041%=      5-min Rain = 0
KLES 102015Z 03004KT 05/M08 A299 RMK A01 T00471077  RH  041%=      5-min Rain = 0
KLES 102020Z 03005KT 05/M08 A2989 RMK A01 T00481076  RH  041%=      5-min Rain = 0
KLES 102025Z 08003G8KT 05/M08 A2989 RMK A01 T00511076  RH  040%=      5-min Rain = 0
KLES 102030Z 05004G9KT 05/M08 A2989 RMK A01 T00511077  RH  039%=      5-min Rain = 0
KLES 102035Z 05005G12KT 05/M08 A2989 RMK A01 T00531075  RH  039%=      5-min Rain = 0
KLES 102040Z 10005KT 05/M08 A2988 RMK A01 T00541076  RH  039%=      5-min Rain = 0
KLES 102045Z 11003KT 05/M08 A2988 RMK A01 T00531075  RH  040%=      5-min Rain = 0
KLES 102050Z 11004KT 06/M08 A2988 RMK A01 T00571075  RH  039%=      5-min Rain = 0
KLES 102055Z 11003KT 06/M07 A2987 RMK A01 T00571074  RH  039%=      5-min Rain = 0
KLES 102100Z 12003KT 06/M08 A2987 RMK A01 T00581075  RH  038%=      5-min Rain = 0
KLES 102105Z 16001KT 06/M07 A2987 RMK A01 T00551074  RH  039%=      5-min Rain = 0
KLES 102110Z 18002KT 06/M07 A2986 RMK A01 T00551074  RH  039%=      5-min Rain = 0
KLES 102115Z 17003G8KT 05/M07 A2986 RMK A01 T00531073  RH  040%=      5-min Rain = 0
KLES 102120Z 16001KT 06/M07 A2986 RMK A01 T00551071  RH  040%=      5-min Rain = 0
KLES 102125Z 15001KT 06/M07 A2986 RMK A01 T00571071  RH  040%=      5-min Rain = 0
KLES 102130Z 12004KT 06/M07 A2985 RMK A01 T00581072  RH  039%=      5-min Rain = 0
KLES 102135Z 14004KT 06/M07 A2985 RMK A01 T00591073  RH  038%=      5-min Rain = 0
KLES 102140Z 13003KT 06/M07 A2985 RMK A01 T00571074  RH  039%=      5-min Rain = 0
KLES 102145Z 10003KT 06/M07 A2985 RMK A01 T00581074  RH  039%=      5-min Rain = 0
KLES 102150Z 10003KT 06/M07 A2985 RMK A01 T00591074  RH  038%=      5-min Rain = 0
KLES 102155Z 13005KT 06/M07 A2984 RMK A01 T00611074  RH  038%=      5-min Rain = 0
KLES 102200Z 17002KT 06/M07 A2984 RMK A01 T00601073  RH  038%=      5-min Rain = 0
KLES 102205Z 12004KT 06/M07 A2984 RMK A01 T00601074  RH  038%=      5-min Rain = 0
KLES 102210Z 12003KT 06/M07 A2984 RMK A01 T00581074  RH  038%=      5-min Rain = 0
KLES 102215Z 11003KT 06/M07 A2984 RMK A01 T00591074  RH  038%=      5-min Rain = 0
KLES 102220Z 13004KT 06/M07 A2984 RMK A01 T00601074  RH  038%=      5-min Rain = 0
KLES 102225Z 13004KT 06/M08 A2984 RMK A01 T00601075  RH  038%=      5-min Rain = 0
KLES 102230Z 11005KT 06/M08 A2984 RMK A01 T00601075  RH  038%=      5-min Rain = 0
KLES 102235Z 12006KT 06/M08 A2984 RMK A01 T00601076  RH  037%=      5-min Rain = 0
KLES 102240Z 11005KT 06/M08 A2983 RMK A01 T00601076  RH  037%=      5-min Rain = 0
KLES 102245Z 10005KT 06/M08 A2983 RMK A01 T00591076  RH  038%=      5-min Rain = 0
KLES 102250Z 11008KT 06/M08 A2983 RMK A01 T00591078  RH  037%=      5-min Rain = 0
KLES 102255Z 10007KT 06/M08 A2983 RMK A01 T00591079  RH  037%=      5-min Rain = 0
KLES 102300Z 10006KT 06/M08 A2983 RMK A01 T00581079  RH  037%=      5-min Rain = 0
KLES 102305Z 10007KT 06/M08 A2984 RMK A01 T00581079  RH  037%=      5-min Rain = 0
KLES 102310Z 10007KT 06/M08 A2984 RMK A01 T00581080  RH  037%=      5-min Rain = 0
KLES 102315Z 09006KT 06/M08 A2983 RMK A01 T00571079  RH  037%=      5-min Rain = 0
KLES 102320Z 10005KT 06/M08 A2984 RMK A01 T00571079  RH  037%=      5-min Rain = 0
KLES 102325Z 10006KT 06/M08 A2984 RMK A01 T00571079  RH  037%=      5-min Rain = 0
KLES 102330Z 11007KT 06/M08 A2983 RMK A01 T00571080  RH  037%=      5-min Rain = 0
KLES 102335Z 10008KT 06/M08 A2983 RMK A01 T00551081  RH  037%=      5-min Rain = 0
KLES 102340Z 10009KT 05/M08 A2984 RMK A01 T00541081  RH  038%=      5-min Rain = 0
KLES 102345Z 11008KT 05/M08 A2984 RMK A01 T00511082  RH  038%=      5-min Rain = 0
KLES 102350Z 11006KT 05/M08 A2984 RMK A01 T00501082  RH  038%=      5-min Rain = 0
KLES 102355Z 10007KT 05/M08 A2984 RMK A01 T00501082  RH  038%=      5-min Rain = 0
KLES 110000Z 10008KT 05/M08 A2984 RMK A01 T00491082  RH  038%=      5-min Rain = 0
KLES 110005Z 10009KT 05/M08 A2984 RMK A01 T00471084  RH  039%=      5-min Rain = 0
KLES 110010Z 10009KT 05/M08 A2983 RMK A01 T00451084  RH  039%=      5-min Rain = 0
KLES 110015Z 11010KT 04/M08 A2983 RMK A01 T00441084  RH  039%=      5-min Rain = 0
KLES 110020Z 11009KT 04/M09 A2983 RMK A01 T00421085  RH  040%=      5-min Rain = 0
KLES 110025Z 11009KT 04/M09 A2983 RMK A01 T00401085  RH  040%=      5-min Rain = 0
KLES 110030Z 11010KT 04/M09 A2982 RMK A01 T00381086  RH  040%=      5-min Rain = 0
KLES 110035Z 11009KT 04/M09 A2983 RMK A01 T00371086  RH  041%=      5-min Rain = 0
KLES 110040Z 12008KT 04/M09 A2982 RMK A01 T00351086  RH  041%=      5-min Rain = 0
KLES 110045Z 11009KT 03/M09 A2982 RMK A01 T00341086  RH  042%=      5-min Rain = 0
KLES 110050Z 12008KT 03/M09 A2982 RMK A01 T00331087  RH  042%=      5-min Rain = 0
KLES 110055Z 11007KT 03/M09 A2983 RMK A01 T00311087  RH  042%=      5-min Rain = 0
KLES 110100Z 12007KT 03/M09 A2983 RMK A01 T00291085  RH  043%=      5-min Rain = 0
KLES 110105Z 11006KT 03/M08 A2983 RMK A01 T00281084  RH  044%=      5-min Rain = 0
KLES 110110Z 11006KT 03/M08 A2983 RMK A01 T00261084  RH  045%=      5-min Rain = 0
KLES 110115Z 11007KT 03/M08 A2984 RMK A01 T00251083  RH  045%=      5-min Rain = 0
KLES 110120Z 11007KT 03/M08 A2984 RMK A01 T00261082  RH  046%=      5-min Rain = 0
KLES 110125Z 12009KT 03/M08 A2984 RMK A01 T00251081  RH  046%=      5-min Rain = 0
KLES 110130Z 11008KT 02/M08 A2985 RMK A01 T00241081  RH  046%=      5-min Rain = 0
KLES 110135Z 11009KT 02/M08 A2984 RMK A01 T00231082  RH  046%=      5-min Rain = 0
KLES 110140Z 11009KT 02/M08 A2984 RMK A01 T00221082  RH  047%=      5-min Rain = 0
KLES 110145Z 11008KT 02/M08 A2984 RMK A01 T00201083  RH  047%=      5-min Rain = 0
KLES 110150Z 11009KT 02/M08 A2984 RMK A01 T00191083  RH  047%=      5-min Rain = 0
KLES 110155Z 11009KT 02/M08 A2984 RMK A01 T00181084  RH  047%=      5-min Rain = 0
KLES 110200Z 12008KT 02/M08 A2984 RMK A01 T00171084  RH  048%=      5-min Rain = 0
KLES 110205Z 12007KT 02/M09 A2984 RMK A01 T00151085  RH  048%=      5-min Rain = 0
KLES 110210Z 11007KT 01/M09 A2984 RMK A01 T00141086  RH  048%=      5-min Rain = 0
KLES 110215Z 11008KT 01/M09 A2985 RMK A01 T00131086  RH  048%=      5-min Rain = 0
KLES 110220Z 12008KT 01/M09 A2985 RMK A01 T00131086  RH  048%=      5-min Rain = 0
KLES 110225Z 11008KT 01/M09 A2985 RMK A01 T00111086  RH  049%=      5-min Rain = 0
KLES 110230Z 11008KT 01/M09 A2985 RMK A01 T00101085  RH  050%=      5-min Rain = 0
KLES 110235Z 11009KT 01/M08 A2985 RMK A01 T00101084  RH  050%=      5-min Rain = 0
KLES 110240Z 10008KT 01/M08 A2985 RMK A01 T00101084  RH  050%=      5-min Rain = 0
KLES 110245Z 09008KT 01/M09 A2986 RMK A01 T00081085  RH  050%=      5-min Rain = 0
KLES 110250Z 08008KT 01/M08 A2987 RMK A01 T00071084  RH  051%=      5-min Rain = 0
KLES 110255Z 07008KT 01/M08 A2987 RMK A01 T00071083  RH  052%=      5-min Rain = 0
KLES 110300Z 08008KT 01/M08 A2987 RMK A01 T00061083  RH  052%=      5-min Rain = 0
KLES 110305Z 07007KT 01/M08 A2988 RMK A01 T00061083  RH  052%=      5-min Rain = 0
KLES 110310Z 08007KT 00/M08 A2989 RMK A01 T00031083  RH  053%=      5-min Rain = 0
KLES 110315Z 07009G14KT 00/M08 A2989 RMK A01 T00041080  RH  054%=      5-min Rain = 0
KLES 110320Z 06009KT 01/M08 A2989 RMK A01 T00051079  RH  054%=      5-min Rain = 0
KLES 110325Z 07009KT 00/M08 A2989 RMK A01 T00041079  RH  054%=      5-min Rain = 0
KLES 110330Z 06008KT 00/M08 A299 RMK A01 T00021081  RH  054%=      5-min Rain = 0
KLES 110335Z 06010KT M00/M08 A299 RMK A01 T10011083  RH  055%=      5-min Rain = 0
KLES 110340Z 05011G16KT M00/M09 A2991 RMK A01 T10031086  RH  054%=      5-min Rain = 0
KLES 110345Z 06011G16KT M00/M09 A2991 RMK A01 T10041089  RH  054%=      5-min Rain = 0
KLES 110350Z 07013G18KT M00/M09 A2991 RMK A01 T10041089  RH  053%=      5-min Rain = 0
KLES 110355Z 06011KT M01/M09 A2991 RMK A01 T10051091  RH  053%=      5-min Rain = 0
KLES 110400Z 07012KT M01/M09 A2991 RMK A01 T10061093  RH  052%=      5-min Rain = 0
KLES 110405Z 07013G18KT M01/M10 A2991 RMK A01 T10071096  RH  052%=      5-min Rain = 0
KLES 110410Z 06013G18KT M01/M10 A2992 RMK A01 T10081097  RH  052%=      5-min Rain = 0
KLES 110415Z 06013G18KT M01/M10 A2992 RMK A01 T10101099  RH  051%=      5-min Rain = 0
KLES 110420Z 06012G21KT M01/M10 A2992 RMK A01 T10121101  RH  052%=      5-min Rain = 0
KLES 110425Z 06014KT M01/M10 A2992 RMK A01 T10141102  RH  052%=      5-min Rain = 0
KLES 110430Z 06013G18KT M02/M10 A2993 RMK A01 T10161103  RH  052%=      5-min Rain = 0
KLES 110435Z 07015G21KT M02/M10 A2992 RMK A01 T10181104  RH  053%=      5-min Rain = 0
KLES 110440Z 06013KT M02/M10 A2993 RMK A01 T10191104  RH  053%=      5-min Rain = 0
KLES 110445Z 06013KT M02/M10 A2994 RMK A01 T10201103  RH  054%=      5-min Rain = 0
KLES 110450Z 05012G17KT M02/M10 A2994 RMK A01 T10221103  RH  054%=      5-min Rain = 0
KLES 110455Z 06013G18KT M02/M10 A2995 RMK A01 T10231104  RH  055%=      5-min Rain = 0
KLES 110500Z 06013G19KT M02/M11 A2995 RMK A01 T10241105  RH  054%=      5-min Rain = 0
KLES 110505Z 05014G19KT M03/M11 A2995 RMK A01 T10251106  RH  055%=      5-min Rain = 0
KLES 110510Z 05013KT M03/M11 A2995 RMK A01 T10271107  RH  055%=      5-min Rain = 0
KLES 110515Z 05013G18KT M03/M11 A2994 RMK A01 T10281107  RH  055%=      5-min Rain = 0
KLES 110520Z 06013G20KT M03/M11 A2994 RMK A01 T10291107  RH  055%=      5-min Rain = 0
KLES 110525Z 05014G19KT M03/M11 A2995 RMK A01 T10301108  RH  056%=      5-min Rain = 0
KLES 110530Z 06014G19KT M03/M11 A2995 RMK A01 T10321109  RH  056%=      5-min Rain = 0
KLES 110535Z 05012G17KT M03/M11 A2995 RMK A01 T10331109  RH  056%=      5-min Rain = 0
KLES 110540Z 05016G23KT M04/M11 A2995 RMK A01 T10351110  RH  057%=      5-min Rain = 0
KLES 110545Z 06015G22KT M04/M11 A2995 RMK A01 T10371111  RH  057%=      5-min Rain = 0
KLES 110550Z 05014G22KT M04/M11 A2996 RMK A01 T10381111  RH  058%=      5-min Rain = 0
KLES 110555Z 05015G21KT M04/M11 A2996 RMK A01 T10401111  RH  058%=      5-min Rain = 0

Page generated in 0.0091 seconds.